createdAt,value
2022-09-12T00:01:17.262Z,20.12
2022-09-12T00:04:05.203Z,20.14
2022-09-12T00:06:53.276Z,19.96
2022-09-12T00:09:34.700Z,19.95
2022-09-12T00:12:21.283Z,19.98
2022-09-12T00:15:02.422Z,20.02
2022-09-12T00:17:55.056Z,19.98
2022-09-12T00:20:40.146Z,19.96
2022-09-12T00:23:27.261Z,19.76
2022-09-12T00:26:12.135Z,19.92
2022-09-12T00:29:01.566Z,19.89
2022-09-12T00:31:43.196Z,19.83
2022-09-12T00:34:31.287Z,19.92
2022-09-12T00:37:12.265Z,19.94
2022-09-12T00:39:59.297Z,19.89
2022-09-12T00:42:41.162Z,19.74
2022-09-12T00:45:34.406Z,19.71
2022-09-12T00:48:28.164Z,19.74
2022-09-12T00:51:20.675Z,19.72
2022-09-12T00:54:02.147Z,19.68
2022-09-12T00:56:53.296Z,19.62
2022-09-12T00:59:43.168Z,19.72
2022-09-12T01:02:33.324Z,19.73
2022-09-12T01:05:28.164Z,19.69
2022-09-12T01:08:17.278Z,19.67
2022-09-12T01:11:01.427Z,19.64
2022-09-12T01:13:52.565Z,19.61
2022-09-12T01:16:33.379Z,19.65
2022-09-12T01:19:40.278Z,19.63
2022-09-12T01:23:03.171Z,19.61
2022-09-12T01:26:22.815Z,19.52
2022-09-12T01:29:24.956Z,19.47
2022-09-12T01:32:16.375Z,19.57
2022-09-12T01:34:57.210Z,19.56
2022-09-12T01:38:01.326Z,19.52
2022-09-12T01:40:50.274Z,19.37
2022-09-12T01:43:58.366Z,19.37
2022-09-12T01:46:59.050Z,19.37
2022-09-12T01:49:57.351Z,19.37
2022-09-12T01:52:57.193Z,19.41
2022-09-12T01:55:51.419Z,19.43
2022-09-12T01:59:13.222Z,19.39
2022-09-12T02:02:12.228Z,19.28
2022-09-12T02:05:15.584Z,19.23
2022-09-12T02:08:34.535Z,19.18
2022-09-12T02:11:18.581Z,19.18
2022-09-12T02:14:34.786Z,19.09
2022-09-12T02:17:20.223Z,19.12
2022-09-12T02:20:26.074Z,19.00
2022-09-12T02:23:24.510Z,19.02
2022-09-12T02:26:19.715Z,18.94
2022-09-12T02:29:00.597Z,18.91
2022-09-12T02:31:56.291Z,18.95
2022-09-12T02:34:48.487Z,18.93
2022-09-12T02:38:04.102Z,18.88
2022-09-12T02:40:45.236Z,18.83
2022-09-12T02:43:32.324Z,18.78
2022-09-12T02:46:23.818Z,18.71
2022-09-12T02:49:12.992Z,18.71
2022-09-12T02:51:56.228Z,18.69
2022-09-12T02:54:44.326Z,18.69
2022-09-12T02:57:27.215Z,18.61
2022-09-12T03:00:18.209Z,18.61
2022-09-12T03:03:11.073Z,18.57
2022-09-12T03:06:12.249Z,18.49
2022-09-12T03:09:09.292Z,18.48
2022-09-12T03:11:50.969Z,18.48
2022-09-12T03:14:50.020Z,18.40
2022-09-12T03:17:43.367Z,18.32
2022-09-12T03:20:31.259Z,18.33
2022-09-12T03:23:40.665Z,18.36
2022-09-12T03:26:39.986Z,18.30
2022-09-12T03:29:21.735Z,18.27
2022-09-12T03:32:10.269Z,18.27
2022-09-12T03:34:51.583Z,18.29
2022-09-12T03:37:40.746Z,18.28
2022-09-12T03:40:21.408Z,18.36
2022-09-12T03:43:10.241Z,18.37
2022-09-12T03:45:54.128Z,18.30
2022-09-12T03:48:44.514Z,18.36
2022-09-12T03:51:25.401Z,18.33
2022-09-12T03:54:13.237Z,18.42
2022-09-12T03:56:56.216Z,18.34
2022-09-12T03:59:46.275Z,18.36
2022-09-12T04:02:27.499Z,18.24
2022-09-12T04:05:23.733Z,18.21
2022-09-12T04:08:13.437Z,18.33
2022-09-12T04:10:55.219Z,18.27
2022-09-12T04:13:44.372Z,18.34
2022-09-12T04:16:25.322Z,18.39
2022-09-12T04:19:18.453Z,18.31
2022-09-12T04:22:00.009Z,18.21
2022-09-12T04:24:47.392Z,18.16
2022-09-12T04:27:28.284Z,18.34
2022-09-12T04:30:16.433Z,18.24
2022-09-12T04:32:58.033Z,18.18
2022-09-12T04:35:47.357Z,18.06
2022-09-12T04:38:28.598Z,18.02
2022-09-12T04:41:20.482Z,18.13
2022-09-12T04:44:09.741Z,18.14
2022-09-12T04:46:56.484Z,18.22
2022-09-12T04:49:38.142Z,18.15
2022-09-12T04:52:25.823Z,18.12
2022-09-12T04:55:07.068Z,18.15
2022-09-12T04:57:55.410Z,18.09
2022-09-12T05:00:37.375Z,18.00
2022-09-12T05:03:28.923Z,18.01
2022-09-12T05:06:19.738Z,18.06
2022-09-12T05:09:00.436Z,18.01
2022-09-12T05:12:06.612Z,17.93
2022-09-12T05:14:49.085Z,17.85
2022-09-12T05:17:38.352Z,17.76
2022-09-12T05:20:19.764Z,17.72
2022-09-12T05:23:09.829Z,17.86
2022-09-12T05:25:59.655Z,17.88
2022-09-12T05:28:46.865Z,17.86
2022-09-12T05:31:29.510Z,17.92
2022-09-12T05:34:20.388Z,17.90
2022-09-12T05:37:01.620Z,17.82
2022-09-12T05:39:48.333Z,17.74
2022-09-12T05:42:30.442Z,17.70
2022-09-12T05:45:19.450Z,17.80
2022-09-12T05:48:00.844Z,17.83
2022-09-12T05:50:49.563Z,17.74
2022-09-12T05:53:30.436Z,17.77
2022-09-12T05:56:22.117Z,17.75
2022-09-12T05:59:12.245Z,17.83
2022-09-12T06:02:08.472Z,17.87
2022-09-12T06:04:56.317Z,17.87
2022-09-12T06:07:51.324Z,17.89
2022-09-12T06:10:40.467Z,17.85
2022-09-12T06:13:22.417Z,17.85
2022-09-12T06:16:11.451Z,18.00
2022-09-12T06:18:57.342Z,18.86
2022-09-12T06:21:46.241Z,20.17
2022-09-12T06:24:29.092Z,21.22
2022-09-12T06:27:16.499Z,22.02
2022-09-12T06:29:57.107Z,22.10
2022-09-12T06:32:46.214Z,22.43
2022-09-12T06:35:28.377Z,22.77
2022-09-12T06:38:17.601Z,22.99
2022-09-12T06:41:00.414Z,23.47
2022-09-12T06:43:49.546Z,23.46
2022-09-12T06:46:30.324Z,23.91
2022-09-12T06:49:17.911Z,24.04
2022-09-12T06:51:58.658Z,24.65
2022-09-12T06:54:47.609Z,24.91
2022-09-12T06:57:28.356Z,25.26
2022-09-12T07:00:18.454Z,25.13
2022-09-12T07:03:04.180Z,25.44
2022-09-12T07:05:54.225Z,25.47
2022-09-12T07:08:39.519Z,25.54
2022-09-12T07:11:32.501Z,25.95
2022-09-12T07:14:17.230Z,25.65
2022-09-12T07:17:04.938Z,25.34
2022-09-12T07:19:45.779Z,25.02
2022-09-12T07:22:32.490Z,25.03
2022-09-12T07:25:13.378Z,25.00
2022-09-12T07:28:02.514Z,24.80
2022-09-12T07:30:43.395Z,24.93
2022-09-12T07:33:34.640Z,25.30
2022-09-12T07:36:20.148Z,25.30
2022-09-12T07:39:08.609Z,25.41
2022-09-12T07:41:49.708Z,25.46
2022-09-12T07:44:37.945Z,25.19
2022-09-12T07:47:20.140Z,24.67
2022-09-12T07:50:09.093Z,24.71
2022-09-12T07:52:49.820Z,25.09
2022-09-12T07:55:37.530Z,25.47
2022-09-12T07:58:19.767Z,25.63
2022-09-12T08:01:15.049Z,25.01
2022-09-12T08:03:59.752Z,24.97
2022-09-12T08:06:46.524Z,24.93
2022-09-12T08:09:27.683Z,24.71
2022-09-12T08:12:14.894Z,24.64
2022-09-12T08:14:56.006Z,25.03
2022-09-12T08:17:43.098Z,24.95
2022-09-12T08:20:28.264Z,25.18
2022-09-12T08:23:15.708Z,25.56
2022-09-12T08:25:58.624Z,25.86
2022-09-12T08:28:46.815Z,26.18
2022-09-12T08:31:32.181Z,26.22
2022-09-12T08:34:21.355Z,26.46
2022-09-12T08:37:03.523Z,26.65
2022-09-12T08:39:53.031Z,26.96
2022-09-12T08:43:06.845Z,27.28
2022-09-12T08:46:06.167Z,27.37
2022-09-12T08:48:47.892Z,27.00
2022-09-12T08:51:38.120Z,27.44
2022-09-12T08:54:52.538Z,27.83
2022-09-12T08:57:41.366Z,28.09
2022-09-12T09:00:24.196Z,28.03
2022-09-12T09:03:17.114Z,28.04
2022-09-12T09:06:36.816Z,28.16
2022-09-12T09:09:39.672Z,28.06
2022-09-12T09:12:31.677Z,28.09
2022-09-12T09:15:41.292Z,28.21
2022-09-12T09:18:29.493Z,28.24
2022-09-12T09:21:31.118Z,28.14
2022-09-12T09:24:16.445Z,27.54
2022-09-12T09:27:39.240Z,27.37
2022-09-12T09:30:24.621Z,27.06
2022-09-12T09:33:17.489Z,26.64
2022-09-12T09:36:18.493Z,26.78
2022-09-12T09:39:13.565Z,26.67
2022-09-12T09:42:17.138Z,26.72
2022-09-12T09:45:20.661Z,26.60
2022-09-12T09:48:27.085Z,26.52
2022-09-12T09:51:15.565Z,26.71
2022-09-12T09:54:14.019Z,27.22
2022-09-12T09:57:05.287Z,27.71
2022-09-12T09:59:46.860Z,27.77
2022-09-12T10:02:34.657Z,28.21
2022-09-12T10:05:30.453Z,28.61
2022-09-12T10:08:27.661Z,28.98
2022-09-12T10:11:22.855Z,28.99
2022-09-12T10:14:09.575Z,28.65
2022-09-12T10:17:04.560Z,28.75
2022-09-12T10:20:17.320Z,28.53
2022-09-12T10:22:56.495Z,28.51
2022-09-12T10:25:43.857Z,28.46
2022-09-12T10:28:35.861Z,28.41
2022-09-12T10:31:36.122Z,28.20
2022-09-12T10:34:29.904Z,28.28
2022-09-12T10:37:26.498Z,28.22
2022-09-12T10:40:10.586Z,28.36
2022-09-12T10:43:02.768Z,28.51
2022-09-12T10:45:44.615Z,28.55
2022-09-12T10:48:37.635Z,28.62
2022-09-12T10:51:30.621Z,28.25
2022-09-12T10:54:20.013Z,28.16
2022-09-12T10:57:42.751Z,28.17
2022-09-12T11:00:30.636Z,28.05
2022-09-12T11:03:30.513Z,28.17
2022-09-12T11:06:33.483Z,28.16
2022-09-12T11:10:01.246Z,28.39
2022-09-12T11:13:23.755Z,28.71
2022-09-12T11:16:44.515Z,28.63
2022-09-12T11:19:35.690Z,28.64
2022-09-12T11:22:31.775Z,28.80
2022-09-12T11:25:35.762Z,28.90
2022-09-12T11:28:38.653Z,29.00
2022-09-12T11:32:00.002Z,28.71
2022-09-12T11:34:59.519Z,28.83
2022-09-12T11:38:01.764Z,28.96
2022-09-12T11:40:53.889Z,28.75
2022-09-12T11:43:47.197Z,28.81
2022-09-12T11:46:51.959Z,28.54
2022-09-12T11:49:36.879Z,28.68
2022-09-12T11:52:26.895Z,28.69
2022-09-12T11:55:12.692Z,28.74
2022-09-12T11:58:05.534Z,28.77
2022-09-12T12:00:53.743Z,28.74
2022-09-12T12:03:49.037Z,28.91
2022-09-12T12:07:08.819Z,28.94
2022-09-12T12:09:58.587Z,28.76
2022-09-12T12:12:48.672Z,28.66
2022-09-12T12:15:31.734Z,28.73
2022-09-12T12:18:28.570Z,28.77
2022-09-12T12:21:38.123Z,28.85
2022-09-12T12:24:29.186Z,28.91
2022-09-12T12:27:30.703Z,29.10
2022-09-12T12:30:45.476Z,29.25
2022-09-12T12:33:26.934Z,29.26
2022-09-12T12:36:17.702Z,29.22
2022-09-12T12:38:59.967Z,29.39
2022-09-12T12:41:52.771Z,29.38
2022-09-12T12:44:52.366Z,29.47
2022-09-12T12:47:49.652Z,29.25
2022-09-12T12:50:35.577Z,29.16
2022-09-12T12:53:31.739Z,29.03
2022-09-12T12:56:34.932Z,29.03
2022-09-12T12:59:29.711Z,29.06
2022-09-12T13:02:13.113Z,29.20
2022-09-12T13:05:02.562Z,29.29
2022-09-12T13:07:51.967Z,29.53
2022-09-12T13:10:35.700Z,29.58
2022-09-12T13:13:39.324Z,29.60
2022-09-12T13:16:46.544Z,29.55
2022-09-12T13:19:40.625Z,29.37
2022-09-12T13:22:21.756Z,29.24
2022-09-12T13:25:25.950Z,29.40
2022-09-12T13:28:20.714Z,29.55
2022-09-12T13:31:15.622Z,29.64
2022-09-12T13:34:06.720Z,29.73
2022-09-12T13:37:08.612Z,29.84
2022-09-12T13:39:57.292Z,29.73
2022-09-12T13:42:49.608Z,29.81
2022-09-12T13:45:33.725Z,29.79
2022-09-12T13:48:26.956Z,29.73
2022-09-12T13:51:10.156Z,29.64
2022-09-12T13:53:59.611Z,29.59
2022-09-12T13:56:40.705Z,29.49
2022-09-12T13:59:27.642Z,29.47
2022-09-12T14:02:09.132Z,29.60
2022-09-12T14:05:17.036Z,29.63
2022-09-12T14:08:10.064Z,29.56
2022-09-12T14:10:54.642Z,29.67
2022-09-12T14:13:41.788Z,29.62
2022-09-12T14:16:24.759Z,29.54
2022-09-12T14:19:12.729Z,29.57
2022-09-12T14:21:54.610Z,29.62
2022-09-12T14:24:48.123Z,29.68
2022-09-12T14:27:35.619Z,29.73
2022-09-12T14:30:32.912Z,29.60
2022-09-12T14:33:16.622Z,29.52
2022-09-12T14:36:44.545Z,29.52
2022-09-12T14:39:44.667Z,29.55
2022-09-12T14:42:36.731Z,29.56
2022-09-12T14:45:34.021Z,29.61
2022-09-12T14:48:25.760Z,29.82
2022-09-12T14:51:08.114Z,29.97
2022-09-12T14:53:56.848Z,29.99
2022-09-12T14:56:50.660Z,29.95
2022-09-12T14:59:41.813Z,30.06
2022-09-12T15:02:29.646Z,30.08
2022-09-12T15:05:17.971Z,30.09
2022-09-12T15:08:17.126Z,30.04
2022-09-12T15:11:07.581Z,29.86
2022-09-12T15:13:49.043Z,29.77
2022-09-12T15:16:36.757Z,29.72
2022-09-12T15:19:18.855Z,29.73
2022-09-12T15:22:06.235Z,29.81
2022-09-12T15:24:46.673Z,29.77
2022-09-12T15:27:33.803Z,29.78
2022-09-12T15:30:16.716Z,29.76
2022-09-12T15:33:05.947Z,29.68
2022-09-12T15:35:49.547Z,29.67
2022-09-12T15:38:36.764Z,29.69
2022-09-12T15:41:40.488Z,29.64
2022-09-12T15:44:28.827Z,29.63
2022-09-12T15:47:10.025Z,29.67
2022-09-12T15:49:56.762Z,29.63
2022-09-12T15:52:39.414Z,29.63
2022-09-12T15:55:33.025Z,29.61
2022-09-12T15:58:14.088Z,29.64
2022-09-12T16:01:02.830Z,29.60
2022-09-12T16:03:43.673Z,29.58
2022-09-12T16:06:40.727Z,29.58
2022-09-12T16:09:28.731Z,29.57
2022-09-12T16:12:09.802Z,29.53
2022-09-12T16:14:58.314Z,29.45
2022-09-12T16:17:38.942Z,29.43
2022-09-12T16:20:28.684Z,29.45
2022-09-12T16:23:09.809Z,29.43
2022-09-12T16:26:07.687Z,29.34
2022-09-12T16:28:49.885Z,29.34
2022-09-12T16:31:40.824Z,29.18
2022-09-12T16:34:21.870Z,29.11
2022-09-12T16:37:10.568Z,29.01
2022-09-12T16:39:53.669Z,28.86
2022-09-12T16:42:43.971Z,28.73
2022-09-12T16:45:27.802Z,28.66
2022-09-12T16:48:15.701Z,28.57
2022-09-12T16:51:04.007Z,28.54
2022-09-12T16:53:53.089Z,28.57
2022-09-12T16:56:33.839Z,28.56
2022-09-12T16:59:24.486Z,28.40
2022-09-12T17:02:06.472Z,28.18
2022-09-12T17:04:55.105Z,28.11
2022-09-12T17:07:48.722Z,28.05
2022-09-12T17:10:37.816Z,28.05
2022-09-12T17:13:19.228Z,27.98
2022-09-12T17:16:07.432Z,27.99
2022-09-12T17:18:47.926Z,27.95
2022-09-12T17:21:36.624Z,27.99
2022-09-12T17:24:18.088Z,27.81
2022-09-12T17:27:05.741Z,27.73
2022-09-12T17:29:46.831Z,27.68
2022-09-12T17:32:34.764Z,27.59
2022-09-12T17:35:18.609Z,27.61
2022-09-12T17:38:06.767Z,27.66
2022-09-12T17:40:59.485Z,27.66
2022-09-12T17:43:48.662Z,27.64
2022-09-12T17:46:35.076Z,27.59
2022-09-12T17:49:25.134Z,27.57
2022-09-12T17:52:05.950Z,27.54
2022-09-12T17:54:54.506Z,27.48
2022-09-12T17:57:38.629Z,27.51
2022-09-12T18:00:47.262Z,27.47
2022-09-12T18:03:31.862Z,27.39
2022-09-12T18:06:26.477Z,27.39
2022-09-12T18:09:14.990Z,27.33
2022-09-12T18:11:56.802Z,27.33
2022-09-12T18:14:44.902Z,27.22
2022-09-12T18:17:26.524Z,27.27
2022-09-12T18:20:14.324Z,27.20
2022-09-12T18:22:57.746Z,27.21
2022-09-12T18:25:44.875Z,27.17
2022-09-12T18:28:28.101Z,27.15
2022-09-12T18:31:21.259Z,27.08
2022-09-12T18:34:03.551Z,27.08
2022-09-12T18:36:55.014Z,27.03
2022-09-12T18:39:37.878Z,27.05
2022-09-12T18:42:24.958Z,27.01
2022-09-12T18:45:06.290Z,26.95
2022-09-12T18:47:53.903Z,26.95
2022-09-12T18:50:34.798Z,26.92
2022-09-12T18:53:25.628Z,26.92
2022-09-12T18:56:08.833Z,26.95
2022-09-12T18:58:59.016Z,26.84
2022-09-12T19:01:42.913Z,26.82
2022-09-12T19:04:31.756Z,26.63
2022-09-12T19:07:27.335Z,26.47
2022-09-12T19:10:14.887Z,26.68
2022-09-12T19:12:56.174Z,26.76
2022-09-12T19:15:46.003Z,26.78
2022-09-12T19:18:26.830Z,26.71
2022-09-12T19:21:19.292Z,26.54
2022-09-12T19:24:04.810Z,26.45
2022-09-12T19:26:54.490Z,26.62
2022-09-12T19:29:35.182Z,26.68
2022-09-12T19:32:25.927Z,26.67
2022-09-12T19:35:07.189Z,26.59
2022-09-12T19:37:56.918Z,26.47
2022-09-12T19:40:38.575Z,26.55
2022-09-12T19:43:26.937Z,26.51
2022-09-12T19:46:08.675Z,26.51
2022-09-12T19:48:58.896Z,26.28
2022-09-12T19:51:41.812Z,26.25
2022-09-12T19:54:28.900Z,26.30
2022-09-12T19:57:10.844Z,26.30
2022-09-12T20:00:02.093Z,26.24
2022-09-12T20:02:43.663Z,26.16
2022-09-12T20:05:33.968Z,26.03
2022-09-12T20:08:29.235Z,26.16
2022-09-12T20:11:17.649Z,26.13
2022-09-12T20:13:59.832Z,26.02
2022-09-12T20:16:48.974Z,26.16
2022-09-12T20:19:30.207Z,26.07
2022-09-12T20:22:19.461Z,26.12
2022-09-12T20:24:59.917Z,26.10
2022-09-12T20:27:47.555Z,26.15
2022-09-12T20:30:28.859Z,26.18
2022-09-12T20:33:19.727Z,26.14
2022-09-12T20:36:15.220Z,26.13
2022-09-12T20:39:05.011Z,26.04
2022-09-12T20:41:46.859Z,26.01
2022-09-12T20:44:36.625Z,26.05
2022-09-12T20:47:24.890Z,26.01
2022-09-12T20:50:14.726Z,25.92
2022-09-12T20:52:56.611Z,25.91
2022-09-12T20:55:46.654Z,25.91
2022-09-12T20:58:28.845Z,25.91
2022-09-12T21:01:18.090Z,25.88
2022-09-12T21:03:58.936Z,25.90
2022-09-12T21:06:52.859Z,25.84
2022-09-12T21:09:41.035Z,25.87
2022-09-12T21:12:22.583Z,25.80
2022-09-12T21:15:13.243Z,25.72
2022-09-12T21:17:57.259Z,25.68
2022-09-12T21:20:44.309Z,25.63
2022-09-12T21:23:26.082Z,25.58
2022-09-12T21:26:15.647Z,25.63
2022-09-12T21:28:58.056Z,25.72
2022-09-12T21:31:47.250Z,25.77
2022-09-12T21:34:28.192Z,25.76
2022-09-12T21:37:16.270Z,25.62
2022-09-12T21:39:57.835Z,25.44
2022-09-12T21:42:47.453Z,25.42
2022-09-12T21:45:28.156Z,25.43
2022-09-12T21:48:20.142Z,25.50
2022-09-12T21:51:03.476Z,25.56
2022-09-12T21:53:51.015Z,25.66
2022-09-12T21:56:32.011Z,25.62
2022-09-12T21:59:20.893Z,25.52
2022-09-12T22:02:02.096Z,25.51
2022-09-12T22:04:52.499Z,25.48
2022-09-12T22:07:45.890Z,25.42
2022-09-12T22:10:38.523Z,25.32
2022-09-12T22:13:19.078Z,25.36
2022-09-12T22:16:08.320Z,25.28
2022-09-12T22:18:50.843Z,25.30
2022-09-12T22:21:38.323Z,25.43
2022-09-12T22:24:31.959Z,25.33
2022-09-12T22:27:19.270Z,25.38
2022-09-12T22:30:00.052Z,25.42
2022-09-12T22:32:48.923Z,25.36
2022-09-12T22:35:30.370Z,25.42
2022-09-12T22:38:18.340Z,25.43
2022-09-12T22:41:02.062Z,25.40
2022-09-12T22:43:49.975Z,25.38
2022-09-12T22:46:32.628Z,25.31
2022-09-12T22:49:21.024Z,25.31
2022-09-12T22:52:02.060Z,25.27
2022-09-12T22:54:50.096Z,25.25
2022-09-12T22:57:32.067Z,25.24
2022-09-12T23:00:20.947Z,25.13
2022-09-12T23:03:03.094Z,25.18
2022-09-12T23:05:52.949Z,25.11
2022-09-12T23:08:50.914Z,25.09
2022-09-12T23:11:40.037Z,25.03
2022-09-12T23:14:21.034Z,25.03
2022-09-12T23:17:08.946Z,24.96
2022-09-12T23:19:50.063Z,24.97
2022-09-12T23:22:36.957Z,25.02
2022-09-12T23:25:22.718Z,25.02
2022-09-12T23:28:14.316Z,24.99
2022-09-12T23:31:02.094Z,24.97
2022-09-12T23:33:49.739Z,24.88
2022-09-12T23:36:32.196Z,24.83
2022-09-12T23:39:19.942Z,24.81
2022-09-12T23:42:01.889Z,24.68
2022-09-12T23:44:49.965Z,24.73
2022-09-12T23:47:31.044Z,24.73
2022-09-12T23:50:20.351Z,24.68
2022-09-12T23:53:02.147Z,24.65
2022-09-12T23:55:50.349Z,24.62
2022-09-12T23:58:32.062Z,24.58
